Terminal Aerodrome Forecast
Issued by NWS Green Bay, WI

Home | Current Version | Previous Version | Graphics & Text | Print | Product List | Glossary On
Versions: 1 2 3 4 5 6 7 8 9 10 11 12 13 14 15 16 17 18 19 20 21 22 23 24 25 26 27 28 29 30 31 32 33 34 35 36 37
000
FTUS43 KGRB 022326
TAFGRB
TAF
KGRB 022326Z 0300/0324 35008KT P6SM SCT050 BKN090
     FM030200 34008KT P6SM FEW050 SCT090
     FM030600 30006KT P6SM SCT070
     FM031600 30010G16KT P6SM SCT070=

USA.gov is the U.S. government's official web portal to all federal, state and local government web resources and services.